This is the latest recevied weather packets stored in our database for station/object IT9DBI-3. If no packets are shown the sender has not sent any weather packets the latest 10 day(s).
| Time | Temp. | Humidity | Pressure | Rain* | Wind** | Luminosity | Snow |
|---|---|---|---|---|---|---|---|
| 1777633738 | 18.33° C | 54% | 1018.4 hPa | - | - | - | - |
| 1777632537 | 19.44° C | 54% | 1018.4 hPa | - | - | - | - |
| 1777631335 | 18.89° C | 58% | 1018.4 hPa | - | - | - | - |
| 1777630134 | 19.44° C | 55% | 1018.3 hPa | - | - | - | - |
| 1777628933 | 18.89° C | 58% | 1018.2 hPa | - | - | - | - |
| 1777627731 | 18.89° C | 61% | 1018.1 hPa | - | - | - | - |
| 1777626530 | 18.89° C | 68% | 1018.1 hPa | - | - | - | - |
| 1777625329 | 18.33° C | 73% | 1018 hPa | - | - | - | - |
| 1777624127 | 17.22° C | 80% | 1018.1 hPa | - | - | - | - |
| 1777622926 | 17.78° C | 79% | 1017.7 hPa | - | - | - | - |
| 1777621725 | 17.78° C | 79% | 1017.4 hPa | - | - | - | - |
| 1777620523 | 17.22° C | 90% | 1017.4 hPa | - | - | - | - |
| 1777619322 | 17.22° C | 94% | 1017.2 hPa | - | - | - | - |
| 1777618119 | 17.22° C | 100% | 1017.2 hPa | - | - | - | - |
| 1777616917 | 16.67° C | 100% | 1017.2 hPa | - | - | - | - |
| 1777615711 | 16.67° C | 100% | 1017 hPa | - | - | - | - |
| 1777614509 | 102.78° C | 100% | 1013 hPa | - | - | - | - |
| 1777613307 | 16.11° C | 100% | 1016.6 hPa | - | - | - | - |
| 1777612106 | 15.56° C | 100% | 1016.5 hPa | - | - | - | - |
| 1777610905 | 16.11° C | 100% | 1016.4 hPa | - | - | - | - |
| 1777609704 | 16.11° C | 100% | 1016.3 hPa | - | - | - | - |
| 1777608502 | 16.67° C | 92% | 1015.9 hPa | - | - | - | - |
| 1777607301 | 17.78° C | 75% | 1015.5 hPa | - | - | - | - |
| 1777606100 | 17.78° C | 74% | 1015.6 hPa | - | - | - | - |
| 1777604898 | 17.22° C | 77% | 1015.7 hPa | - | - | - | - |
* Rain since midnight (hover to see other rain measurements)
** Current wind speed in m/s (hover to see current wind gust speed)